Naval Academy, Maryland
Current Conditions -  °F | °C
As of 4:54 AM on Sunday 26 Oct 2014 (Local Time) from KNAK Reporting Station
Clear Clear  
Wind Chill: 56°   Ceiling: Unl
Heat Index: 56°   Visibility: 10mi
Dew Point: 45°   Wind: 5mph
Humidity: 67%   Direction: 270°W
Pressure: 29.68"   Gusts: NA
Location:  38.9898°N, 76.4639°W
Report Text: KNAK 260854Z AUTO 27004KT 10SM CLR 13/07 A2968 RMK AO2 SLP053 T01330072 53008
Loading
Personal Weather Stations






























Interactive Weather Map
Tropical Storm Tracking
New forecast layout! Learn more

10-Day Weather Forecast

Advertisements
Track Severe Weather on mobile